Baker Ranch, California
Current Conditions -  °F | °C
As of 3:39 PM on Saturday 22 Nov 2014 (Local Time) from KBLU Reporting Station
Moderate Rain Moderate Rain  
Wind Chill: 36°   Ceiling: 200
Heat Index: 41°   Visibility: 0.5mi
Dew Point: 38°   Wind: 7mph
Humidity: 89%   Direction: 280°W
Pressure: 30.14"   Gusts: NA
Location:  39.0724°N, 120.571°W
Report Text: KBLU 222339Z AUTO 28006KT 1/2SM RA FG BKN002 BKN008 OVC016 05/03 A3014 RMK AO2 P0005 T00500033
Loading
Personal Weather Stations






























Interactive Weather Map New forecast layout! Learn more

10-Day Weather Forecast

Advertisements
Track Severe Weather on mobile